createdAt,value
2023-04-25T00:02:01.833Z,100.00
2023-04-25T00:04:31.898Z,100.00
2023-04-25T00:07:03.449Z,100.00
2023-04-25T00:09:32.387Z,100.00
2023-04-25T00:12:00.864Z,100.00
2023-04-25T00:14:29.862Z,100.00
2023-04-25T00:16:58.370Z,99.68
2023-04-25T00:19:26.775Z,99.70
2023-04-25T00:21:55.393Z,98.68
2023-04-25T00:24:23.937Z,98.56
2023-04-25T00:26:52.352Z,99.42
2023-04-25T00:29:20.792Z,100.00
2023-04-25T00:31:49.238Z,98.68
2023-04-25T00:34:17.629Z,98.77
2023-04-25T00:36:46.028Z,98.51
2023-04-25T00:39:15.662Z,97.90
2023-04-25T00:41:44.375Z,98.11
2023-04-25T00:44:15.386Z,96.95
2023-04-25T00:46:44.507Z,96.85
2023-04-25T00:49:17.468Z,96.38
2023-04-25T00:51:46.784Z,96.33
2023-04-25T00:54:17.397Z,96.98
2023-04-25T00:56:47.527Z,95.87
2023-04-25T00:59:18.179Z,96.01
2023-04-25T01:01:47.611Z,95.87
2023-04-25T01:04:16.604Z,95.34
2023-04-25T01:06:45.468Z,94.75
2023-04-25T01:09:14.800Z,94.48
2023-04-25T01:11:43.224Z,94.06
2023-04-25T01:14:11.791Z,94.43
2023-04-25T01:16:40.492Z,93.50
2023-04-25T01:19:14.198Z,93.16
2023-04-25T01:21:42.734Z,93.18
2023-04-25T01:24:11.324Z,91.54
2023-04-25T01:26:40.418Z,91.78
2023-04-25T01:29:09.841Z,91.56
2023-04-25T01:31:39.161Z,91.25
2023-04-25T01:34:07.776Z,89.97
2023-04-25T01:36:37.046Z,88.93
2023-04-25T01:39:05.977Z,87.07
2023-04-25T01:41:34.656Z,87.30
2023-04-25T01:44:04.474Z,88.06
2023-04-25T01:46:33.516Z,86.68
2023-04-25T01:49:02.092Z,85.95
2023-04-25T01:51:30.913Z,85.91
2023-04-25T01:54:01.158Z,84.53
2023-04-25T01:56:38.899Z,83.23
2023-04-25T01:59:08.644Z,84.51
2023-04-25T02:01:37.146Z,82.45
2023-04-25T02:04:05.715Z,85.07
2023-04-25T02:06:34.374Z,83.36
2023-04-25T02:09:02.970Z,83.27
2023-04-25T02:11:31.434Z,83.18
2023-04-25T02:13:59.856Z,84.09
2023-04-25T02:16:28.394Z,85.28
2023-04-25T02:18:56.852Z,84.79
2023-04-25T02:21:25.279Z,81.11
2023-04-25T02:23:54.020Z,82.88
2023-04-25T02:26:23.043Z,82.02
2023-04-25T02:28:51.994Z,82.16
2023-04-25T02:31:20.405Z,81.64
2023-04-25T02:33:49.888Z,83.70
2023-04-25T02:36:18.414Z,81.38
2023-04-25T02:38:46.925Z,80.53
2023-04-25T02:41:15.369Z,78.82
2023-04-25T02:43:43.779Z,78.02
2023-04-25T02:46:12.231Z,81.08
2023-04-25T02:48:40.667Z,78.80
2023-04-25T02:51:09.060Z,77.97
2023-04-25T02:53:37.765Z,79.81
2023-04-25T02:56:06.476Z,79.35
2023-04-25T02:58:34.867Z,76.71
2023-04-25T03:01:03.278Z,75.57
2023-04-25T03:03:32.194Z,76.88
2023-04-25T03:06:00.678Z,78.20
2023-04-25T03:08:34.361Z,72.19
2023-04-25T03:11:02.935Z,72.73
2023-04-25T03:13:31.948Z,73.81
2023-04-25T03:16:00.767Z,77.34
2023-04-25T03:18:29.181Z,75.67
2023-04-25T03:20:57.625Z,73.47
2023-04-25T03:23:25.999Z,74.57
2023-04-25T03:25:54.471Z,75.74
2023-04-25T03:28:22.932Z,76.60
2023-04-25T03:30:51.347Z,76.07
2023-04-25T03:33:19.993Z,72.73
2023-04-25T03:35:48.524Z,74.12
2023-04-25T03:38:16.998Z,72.52
2023-04-25T03:40:45.448Z,74.06
2023-04-25T03:43:13.880Z,73.77
2023-04-25T03:45:42.503Z,73.35
2023-04-25T03:48:11.210Z,71.75
2023-04-25T03:50:39.677Z,74.97
2023-04-25T03:53:08.595Z,69.28
2023-04-25T03:55:37.013Z,69.09
2023-04-25T03:58:05.466Z,71.51
2023-04-25T04:00:33.861Z,70.51
2023-04-25T04:03:02.630Z,67.82
2023-04-25T04:05:31.636Z,70.16
2023-04-25T04:08:00.048Z,70.95
2023-04-25T04:10:28.543Z,71.55
2023-04-25T04:12:57.114Z,72.31
2023-04-25T04:15:25.663Z,71.67
2023-04-25T04:17:54.165Z,72.60
2023-04-25T04:20:22.720Z,70.11
2023-04-25T04:22:51.103Z,71.70
2023-04-25T04:25:20.079Z,72.16
2023-04-25T04:27:49.218Z,69.10
2023-04-25T04:30:17.798Z,68.61
2023-04-25T04:32:47.370Z,69.12
2023-04-25T04:35:16.850Z,69.18
2023-04-25T04:37:47.610Z,68.98
2023-04-25T04:40:19.785Z,68.29
2023-04-25T04:42:48.361Z,68.54
2023-04-25T04:45:18.187Z,64.66
2023-04-25T04:47:47.739Z,67.97
2023-04-25T04:50:16.986Z,68.00
2023-04-25T04:52:45.497Z,67.96
2023-04-25T04:55:13.939Z,67.57
2023-04-25T04:57:42.381Z,68.34
2023-04-25T05:00:12.902Z,63.17
2023-04-25T05:02:41.646Z,66.81
2023-04-25T05:05:11.221Z,62.84
2023-04-25T05:07:39.636Z,67.36
2023-04-25T05:10:08.736Z,60.72
2023-04-25T05:12:37.399Z,66.29
2023-04-25T05:15:06.139Z,64.44
2023-04-25T05:17:34.842Z,65.44
2023-04-25T05:20:04.699Z,65.58
2023-04-25T05:22:33.110Z,64.95
2023-04-25T05:25:01.528Z,67.56
2023-04-25T05:27:29.963Z,65.60
2023-04-25T05:29:58.348Z,62.55
2023-04-25T05:32:27.210Z,64.57
2023-04-25T05:34:55.989Z,62.35
2023-04-25T05:37:24.394Z,63.61
2023-04-25T05:39:55.465Z,60.70
2023-04-25T05:42:23.939Z,63.11
2023-04-25T05:44:52.374Z,63.03
2023-04-25T05:47:20.788Z,61.92
2023-04-25T05:49:49.213Z,62.01
2023-04-25T05:52:17.665Z,64.49
2023-04-25T05:54:46.080Z,60.25
2023-04-25T05:57:29.316Z,59.13
2023-04-25T05:59:57.788Z,64.47
2023-04-25T06:02:26.279Z,63.46
2023-04-25T06:04:55.131Z,63.37
2023-04-25T06:07:23.896Z,61.17
2023-04-25T06:09:53.019Z,60.53
2023-04-25T06:12:21.695Z,60.96
2023-04-25T06:14:50.209Z,58.43
2023-04-25T06:17:18.642Z,60.32
2023-04-25T06:19:47.052Z,56.25
2023-04-25T06:22:15.573Z,58.61
2023-04-25T06:24:43.978Z,58.11
2023-04-25T06:27:12.351Z,59.25
2023-04-25T06:29:40.746Z,59.23
2023-04-25T06:32:09.220Z,54.34
2023-04-25T06:34:37.869Z,58.58
2023-04-25T06:37:06.420Z,52.96
2023-04-25T06:39:34.805Z,56.66
2023-04-25T06:42:03.244Z,56.41
2023-04-25T06:44:32.424Z,55.69
2023-04-25T06:47:00.922Z,53.08
2023-04-25T06:49:29.362Z,51.28
2023-04-25T06:51:57.841Z,57.50
2023-04-25T06:54:27.032Z,53.55
2023-04-25T06:56:55.957Z,57.60
2023-04-25T06:59:25.249Z,56.29
2023-04-25T07:01:53.642Z,52.94
2023-04-25T07:04:22.647Z,53.68
2023-04-25T07:06:51.668Z,52.10
2023-04-25T07:09:20.102Z,56.36
2023-04-25T07:11:48.745Z,57.71
2023-04-25T07:14:17.398Z,59.02
2023-04-25T07:16:45.884Z,56.48
2023-04-25T07:19:14.465Z,57.67
2023-04-25T07:21:42.854Z,56.26
2023-04-25T07:24:11.241Z,56.73
2023-04-25T07:26:39.645Z,56.38
2023-04-25T07:29:08.072Z,58.93
2023-04-25T07:31:36.614Z,60.11
2023-04-25T07:34:05.176Z,59.29
2023-04-25T07:36:34.010Z,59.43
2023-04-25T07:39:02.389Z,58.07
2023-04-25T07:41:30.928Z,56.07
2023-04-25T07:43:59.337Z,55.86
2023-04-25T07:46:27.892Z,57.15
2023-04-25T07:48:56.467Z,53.63
2023-04-25T07:51:24.874Z,54.46
2023-04-25T07:53:53.361Z,55.34
2023-04-25T07:56:21.866Z,55.34
2023-04-25T07:58:50.408Z,57.00
2023-04-25T08:01:19.004Z,56.85
2023-04-25T08:03:47.661Z,54.83
2023-04-25T08:06:16.614Z,54.06
2023-04-25T08:08:45.226Z,59.56
2023-04-25T08:11:13.744Z,57.30
2023-04-25T08:13:42.173Z,52.62
2023-04-25T08:16:10.911Z,57.54
2023-04-25T08:18:39.344Z,57.13
2023-04-25T08:21:08.794Z,59.58
2023-04-25T08:23:37.288Z,60.52
2023-04-25T08:26:06.865Z,59.82
2023-04-25T08:28:35.397Z,60.02
2023-04-25T08:31:03.945Z,60.86
2023-04-25T08:33:33.192Z,62.04
2023-04-25T08:36:01.822Z,57.70
2023-04-25T08:38:30.217Z,60.30
2023-04-25T08:41:01.890Z,62.73
2023-04-25T08:43:32.769Z,62.84
2023-04-25T08:46:05.509Z,60.28
2023-04-25T08:48:36.980Z,61.86
2023-04-25T08:53:46.185Z,60.21
2023-04-25T08:56:19.503Z,63.54
2023-04-25T08:58:49.994Z,61.76
2023-04-25T09:01:19.396Z,63.55
2023-04-25T09:03:49.450Z,64.70
2023-04-25T09:06:20.264Z,64.66
2023-04-25T09:08:48.717Z,63.75
2023-04-25T09:11:17.815Z,64.37
2023-04-25T09:13:48.165Z,63.65
2023-04-25T09:16:19.367Z,62.34
2023-04-25T09:18:49.935Z,63.58
2023-04-25T09:21:18.318Z,64.47
2023-04-25T09:23:51.721Z,64.75
2023-04-25T09:26:21.994Z,65.30
2023-04-25T09:28:50.467Z,66.88
2023-04-25T09:31:26.508Z,67.13
2023-04-25T09:34:03.051Z,64.88
2023-04-25T09:36:32.990Z,67.53
2023-04-25T09:39:03.062Z,67.37
2023-04-25T09:41:31.746Z,67.03
2023-04-25T09:44:01.527Z,67.56
2023-04-25T09:46:41.819Z,67.27
2023-04-25T09:49:10.599Z,67.55
2023-04-25T09:51:38.988Z,67.12
2023-04-25T09:54:07.520Z,66.08
2023-04-25T09:56:39.641Z,63.04
2023-04-25T09:59:09.346Z,63.82
2023-04-25T10:01:41.970Z,65.06
2023-04-25T10:04:14.241Z,63.93
2023-04-25T10:06:45.200Z,63.39
2023-04-25T10:09:14.973Z,64.33
2023-04-25T10:11:43.704Z,64.40
2023-04-25T10:14:12.481Z,64.12
2023-04-25T10:16:42.389Z,64.51
2023-04-25T10:19:12.092Z,64.66
2023-04-25T10:22:07.479Z,65.65
2023-04-25T10:24:39.166Z,66.34
2023-04-25T10:27:09.230Z,66.39
2023-04-25T10:29:37.876Z,66.67
2023-04-25T10:32:06.721Z,66.38
2023-04-25T10:34:43.947Z,68.05
2023-04-25T10:37:13.272Z,65.43
2023-04-25T10:39:45.896Z,64.63
2023-04-25T10:42:14.758Z,65.68
2023-04-25T10:44:43.168Z,66.68
2023-04-25T10:47:11.890Z,66.36
2023-04-25T10:49:44.581Z,66.65
2023-04-25T10:52:18.902Z,67.51
2023-04-25T10:54:55.658Z,68.24
2023-04-25T10:57:38.431Z,68.17
2023-04-25T11:00:13.647Z,67.41
2023-04-25T11:02:55.228Z,67.97
2023-04-25T11:05:51.039Z,67.07
2023-04-25T11:08:39.543Z,67.06
2023-04-25T11:11:08.159Z,67.54
2023-04-25T11:13:37.259Z,67.38
2023-04-25T11:16:12.539Z,68.68
2023-04-25T11:18:46.951Z,69.51
2023-04-25T11:21:16.070Z,70.91
2023-04-25T11:23:48.601Z,72.75
2023-04-25T11:26:17.374Z,72.95
2023-04-25T11:28:48.928Z,73.62
2023-04-25T11:31:17.514Z,73.28
2023-04-25T11:33:47.511Z,73.30
2023-04-25T11:36:15.954Z,75.38
2023-04-25T11:38:44.412Z,77.14
2023-04-25T11:41:13.673Z,78.13
2023-04-25T11:43:43.479Z,78.49
2023-04-25T11:46:12.322Z,79.65
2023-04-25T11:48:41.895Z,78.69
2023-04-25T11:51:10.626Z,78.43
2023-04-25T11:53:43.111Z,79.80
2023-04-25T11:56:15.307Z,78.40
2023-04-25T11:59:04.610Z,79.23
2023-04-25T12:01:38.842Z,81.32
2023-04-25T12:04:17.794Z,82.92
2023-04-25T12:06:51.089Z,84.56
2023-04-25T12:09:23.401Z,84.97
2023-04-25T12:11:56.449Z,84.57
2023-04-25T12:14:30.165Z,83.69
2023-04-25T12:17:00.739Z,81.68
2023-04-25T12:19:38.647Z,80.30
2023-04-25T12:22:24.731Z,79.68
2023-04-25T12:24:55.431Z,78.59
2023-04-25T12:27:23.922Z,79.94
2023-04-25T12:29:57.757Z,79.53
2023-04-25T12:32:27.085Z,77.89
2023-04-25T12:34:55.494Z,76.93
2023-04-25T12:37:24.706Z,77.47
2023-04-25T12:39:53.294Z,78.28
2023-04-25T12:42:21.867Z,77.52
2023-04-25T12:44:50.416Z,77.86
2023-04-25T12:47:18.835Z,80.56
2023-04-25T12:49:47.306Z,81.26
2023-04-25T12:52:15.691Z,82.45
2023-04-25T12:54:44.172Z,81.71
2023-04-25T12:57:13.365Z,80.38
2023-04-25T12:59:41.801Z,80.68
2023-04-25T13:02:10.323Z,81.69
2023-04-25T13:04:38.839Z,81.63
2023-04-25T13:07:07.399Z,83.25
2023-04-25T13:09:35.815Z,83.57
2023-04-25T13:12:04.310Z,84.38
2023-04-25T13:14:32.853Z,85.89
2023-04-25T13:17:01.300Z,87.44
2023-04-25T13:19:29.753Z,87.73
2023-04-25T13:21:58.383Z,88.34
2023-04-25T13:24:26.780Z,87.61
2023-04-25T13:26:55.195Z,87.74
2023-04-25T13:29:23.660Z,88.16
2023-04-25T13:31:52.138Z,87.99
2023-04-25T13:34:20.548Z,87.94
2023-04-25T13:36:48.975Z,87.76
2023-04-25T13:39:17.360Z,87.34
2023-04-25T13:41:45.844Z,87.68
2023-04-25T13:44:14.575Z,88.57
2023-04-25T13:46:47.020Z,88.88
2023-04-25T13:49:16.168Z,89.10
2023-04-25T13:51:44.552Z,89.78
2023-04-25T13:54:13.387Z,89.96
2023-04-25T13:56:44.019Z,89.80
2023-04-25T13:59:13.296Z,89.42
2023-04-25T14:01:42.102Z,90.82
2023-04-25T14:04:10.694Z,92.08
2023-04-25T14:06:39.449Z,92.21
2023-04-25T14:09:09.092Z,91.20
2023-04-25T14:11:37.803Z,91.20
2023-04-25T14:14:06.192Z,92.56
2023-04-25T14:16:34.884Z,92.43
2023-04-25T14:19:03.768Z,93.07
2023-04-25T14:21:34.447Z,92.59
2023-04-25T14:24:02.937Z,92.13
2023-04-25T14:26:32.139Z,92.99
2023-04-25T14:29:00.597Z,93.17
2023-04-25T14:31:29.309Z,94.16
2023-04-25T14:33:59.385Z,93.71
2023-04-25T14:36:30.192Z,93.31
2023-04-25T14:38:58.973Z,92.42
2023-04-25T14:41:28.125Z,92.05
2023-04-25T14:43:57.638Z,90.61
2023-04-25T14:46:26.363Z,90.35
2023-04-25T14:48:55.212Z,90.52
2023-04-25T14:51:23.793Z,89.95
2023-04-25T14:53:52.967Z,90.16
2023-04-25T14:56:21.603Z,90.81
2023-04-25T14:58:50.553Z,91.61
2023-04-25T15:01:19.156Z,91.46
2023-04-25T15:03:48.060Z,89.98
2023-04-25T15:06:16.612Z,90.40
2023-04-25T15:08:44.992Z,91.23
2023-04-25T15:11:13.460Z,90.94
2023-04-25T15:13:42.210Z,90.67
2023-04-25T15:16:10.638Z,90.39
2023-04-25T15:18:39.099Z,89.38
2023-04-25T15:21:07.569Z,89.36
2023-04-25T15:23:36.689Z,88.08
2023-04-25T15:26:05.106Z,87.22
2023-04-25T15:28:35.659Z,88.84
2023-04-25T15:31:04.076Z,89.94
2023-04-25T15:33:32.989Z,90.66
2023-04-25T15:36:01.634Z,90.26
2023-04-25T15:38:30.048Z,90.09
2023-04-25T15:40:58.450Z,90.98
2023-04-25T15:43:27.430Z,92.32
2023-04-25T15:45:55.878Z,95.34
2023-04-25T15:48:24.304Z,96.27
2023-04-25T15:50:52.718Z,91.07
2023-04-25T15:53:21.103Z,92.63
2023-04-25T15:55:49.542Z,91.81
2023-04-25T15:58:17.956Z,87.60
2023-04-25T16:00:49.894Z,86.23
2023-04-25T16:03:18.788Z,85.35
2023-04-25T16:05:47.411Z,85.03
2023-04-25T16:08:15.817Z,84.14
2023-04-25T16:10:44.298Z,83.75
2023-04-25T16:13:13.022Z,82.86
2023-04-25T16:15:41.841Z,82.76
2023-04-25T16:18:10.303Z,82.70
2023-04-25T16:20:38.782Z,83.03
2023-04-25T16:23:07.385Z,83.38
2023-04-25T16:25:35.885Z,83.69
2023-04-25T16:28:04.272Z,84.39
2023-04-25T16:30:32.805Z,84.71
2023-04-25T16:33:02.165Z,85.79
2023-04-25T16:35:33.404Z,86.93
2023-04-25T16:38:02.316Z,87.42
2023-04-25T16:40:30.850Z,88.23
2023-04-25T16:42:59.284Z,88.57
2023-04-25T16:45:28.438Z,89.22
2023-04-25T16:47:56.881Z,89.04
2023-04-25T16:50:25.331Z,88.72
2023-04-25T16:52:53.854Z,88.52
2023-04-25T16:55:22.334Z,88.90
2023-04-25T16:57:50.715Z,89.79
2023-04-25T17:00:19.581Z,89.48
2023-04-25T17:02:48.375Z,89.82
2023-04-25T17:05:16.829Z,90.39
2023-04-25T17:07:45.208Z,89.87
2023-04-25T17:10:13.607Z,88.42
2023-04-25T17:12:42.102Z,88.65
2023-04-25T17:15:11.108Z,91.12
2023-04-25T17:17:39.535Z,91.41
2023-04-25T17:20:08.755Z,91.55
2023-04-25T17:22:41.180Z,91.06
2023-04-25T17:25:10.706Z,91.35
2023-04-25T17:27:39.210Z,90.90
2023-04-25T17:30:08.216Z,89.31
2023-04-25T17:32:36.733Z,89.96
2023-04-25T17:35:06.338Z,90.25
2023-04-25T17:37:34.915Z,90.96
2023-04-25T17:40:05.707Z,91.65
2023-04-25T17:42:34.226Z,92.23
2023-04-25T17:45:02.606Z,91.57
2023-04-25T17:47:31.045Z,91.64
2023-04-25T17:49:59.912Z,91.96
2023-04-25T17:52:28.412Z,92.05
2023-04-25T17:54:56.973Z,92.19
2023-04-25T17:57:26.287Z,91.77
2023-04-25T17:59:57.165Z,91.50
2023-04-25T18:02:25.763Z,91.88
2023-04-25T18:04:54.591Z,92.72
2023-04-25T18:07:23.114Z,93.61
2023-04-25T18:09:51.514Z,93.69
2023-04-25T18:12:20.279Z,93.10
2023-04-25T18:14:48.663Z,93.39
2023-04-25T18:17:18.167Z,94.41
2023-04-25T18:19:47.423Z,94.03
2023-04-25T18:22:16.132Z,93.80
2023-04-25T18:24:47.681Z,91.38
2023-04-25T18:27:16.126Z,91.49
2023-04-25T18:29:46.268Z,89.25
2023-04-25T18:32:14.792Z,89.38
2023-04-25T18:34:44.726Z,88.48
2023-04-25T18:37:15.223Z,87.72
2023-04-25T18:39:43.831Z,88.83
2023-04-25T18:42:12.594Z,89.27
2023-04-25T18:44:41.514Z,89.16
2023-04-25T18:47:19.967Z,87.14
2023-04-25T18:49:49.121Z,86.61
2023-04-25T18:52:18.103Z,86.50
2023-04-25T18:54:47.058Z,85.91
2023-04-25T18:57:17.088Z,85.94
2023-04-25T18:59:47.209Z,86.24
2023-04-25T19:02:17.532Z,86.17
2023-04-25T19:04:46.049Z,86.85
2023-04-25T19:07:15.861Z,88.99
2023-04-25T19:09:44.345Z,88.78
2023-04-25T19:12:12.840Z,88.82
2023-04-25T19:14:41.603Z,88.68
2023-04-25T19:17:10.094Z,89.13
2023-04-25T19:19:39.327Z,88.65
2023-04-25T19:22:08.481Z,89.35
2023-04-25T19:24:36.881Z,89.02
2023-04-25T19:27:05.643Z,88.66
2023-04-25T19:29:35.065Z,87.83
2023-04-25T19:32:04.420Z,88.38
2023-04-25T19:34:32.865Z,87.98
2023-04-25T19:37:01.715Z,87.57
2023-04-25T19:39:30.240Z,87.50
2023-04-25T19:41:58.708Z,87.82
2023-04-25T19:44:27.432Z,87.98
2023-04-25T19:46:55.804Z,88.46
2023-04-25T19:49:24.217Z,88.34
2023-04-25T19:51:52.939Z,88.46
2023-04-25T19:54:23.275Z,87.94
2023-04-25T19:56:51.772Z,86.89
2023-04-25T19:59:20.251Z,87.49
2023-04-25T20:01:48.789Z,87.52
2023-04-25T20:04:19.284Z,89.44
2023-04-25T20:06:47.684Z,88.83
2023-04-25T20:09:17.361Z,89.18
2023-04-25T20:11:45.853Z,90.46
2023-04-25T20:14:14.674Z,89.86
2023-04-25T20:16:43.321Z,91.72
2023-04-25T20:19:11.802Z,91.43
2023-04-25T20:21:40.655Z,92.25
2023-04-25T20:24:09.577Z,91.83
2023-04-25T20:26:38.607Z,92.07
2023-04-25T20:29:07.455Z,92.52
2023-04-25T20:31:37.878Z,92.69
2023-04-25T20:34:06.423Z,91.61
2023-04-25T20:36:34.844Z,90.36
2023-04-25T20:39:03.424Z,90.76
2023-04-25T20:41:32.662Z,91.18
2023-04-25T20:44:02.062Z,91.39
2023-04-25T20:46:31.214Z,91.95
2023-04-25T20:49:00.089Z,92.90
2023-04-25T20:51:28.607Z,94.14
2023-04-25T20:53:57.814Z,94.32
2023-04-25T20:56:27.450Z,94.26
2023-04-25T20:58:56.698Z,95.29
2023-04-25T21:01:26.399Z,96.27
2023-04-25T21:03:55.243Z,95.35
2023-04-25T21:06:23.842Z,94.43
2023-04-25T21:08:52.669Z,94.54
2023-04-25T21:11:21.390Z,93.68
2023-04-25T21:13:49.850Z,95.02
2023-04-25T21:16:18.281Z,94.86
2023-04-25T21:18:46.826Z,95.16
2023-04-25T21:21:15.288Z,95.39
2023-04-25T21:23:43.920Z,94.53
2023-04-25T21:26:12.400Z,95.16
2023-04-25T21:28:40.820Z,93.85
2023-04-25T21:31:09.248Z,94.86
2023-04-25T21:33:37.802Z,94.08
2023-04-25T21:36:07.135Z,94.60
2023-04-25T21:38:36.336Z,94.50
2023-04-25T21:41:04.964Z,95.02
2023-04-25T21:43:33.525Z,95.55
2023-04-25T21:48:33.024Z,95.85
2023-04-25T21:51:01.614Z,96.18
2023-04-25T21:53:30.009Z,96.18
2023-04-25T21:55:58.418Z,95.57
2023-04-25T21:58:27.494Z,92.30
2023-04-25T22:00:56.568Z,93.40
2023-04-25T22:03:25.058Z,91.81
2023-04-25T22:05:53.545Z,91.68
2023-04-25T22:08:21.966Z,93.62
2023-04-25T22:10:50.349Z,94.36
2023-04-25T22:13:18.740Z,93.93
2023-04-25T22:15:47.175Z,94.09
2023-04-25T22:18:17.118Z,93.08
2023-04-25T22:20:45.871Z,92.56
2023-04-25T22:23:14.741Z,90.22
2023-04-25T22:25:43.394Z,91.71
2023-04-25T22:28:13.570Z,90.16
2023-04-25T22:30:41.965Z,89.35
2023-04-25T22:33:10.405Z,90.43
2023-04-25T22:35:38.876Z,91.13
2023-04-25T22:38:07.441Z,91.48
2023-04-25T22:40:36.335Z,91.72
2023-04-25T22:43:04.850Z,90.55
2023-04-25T22:45:33.584Z,89.96
2023-04-25T22:48:02.042Z,89.58
2023-04-25T22:50:31.026Z,90.06
2023-04-25T22:52:59.462Z,90.95
2023-04-25T22:55:27.908Z,90.77
2023-04-25T22:57:56.301Z,90.07
2023-04-25T23:00:27.123Z,91.01
2023-04-25T23:02:55.899Z,90.60
2023-04-25T23:05:27.147Z,91.56
2023-04-25T23:07:55.686Z,91.16
2023-04-25T23:10:24.278Z,92.44
2023-04-25T23:12:53.007Z,92.02
2023-04-25T23:15:21.771Z,91.77
2023-04-25T23:17:50.430Z,90.98
2023-04-25T23:20:18.973Z,90.90
2023-04-25T23:22:47.398Z,91.57
2023-04-25T23:25:15.951Z,92.14
2023-04-25T23:27:44.744Z,91.96
2023-04-25T23:30:13.556Z,91.91
2023-04-25T23:32:42.965Z,92.51
2023-04-25T23:35:11.662Z,92.74
2023-04-25T23:37:43.614Z,91.04
2023-04-25T23:40:15.221Z,90.79
2023-04-25T23:42:44.057Z,90.67
2023-04-25T23:45:12.608Z,92.02
2023-04-25T23:47:41.044Z,91.58
2023-04-25T23:50:10.078Z,91.39
2023-04-25T23:52:38.861Z,93.23
2023-04-25T23:55:07.948Z,92.04
2023-04-25T23:57:36.446Z,90.03
